Time;durP1;ratioP1;P1;durP2;ratioP2;P2;SDS_P1;SDS_P2;PMS_P1;PMS_P2;Temp;Humidity;BMP_temperature;BMP_pressure;BME280_temperature;BME280_humidity;BME280_pressure;Samples;Min_cycle;Max_cycle;Signal;HPM_P1;HPM_P2
2021/08/19 00:01:31;;;;;;;2.53;1.30;;;18.30;99.60;;;;;;5115778;28;20591;-77
2021/08/19 00:03:58;;;;;;;3.03;1.40;;;18.20;99.60;;;;;;5115945;28;20035;-79
2021/08/19 00:06:25;;;;;;;4.15;1.50;;;18.20;99.60;;;;;;5116051;28;20127;-77
2021/08/19 00:08:52;;;;;;;2.83;1.30;;;18.20;99.60;;;;;;5115951;28;20576;-79
2021/08/19 00:11:20;;;;;;;3.97;1.60;;;18.20;99.70;;;;;;5101752;28;20134;-77
2021/08/19 00:13:47;;;;;;;3.17;1.50;;;18.10;99.70;;;;;;5115757;28;20123;-79
2021/08/19 00:16:15;;;;;;;2.88;1.50;;;18.10;99.70;;;;;;5116266;28;20083;-79
2021/08/19 00:18:42;;;;;;;3.10;1.58;;;18.10;99.80;;;;;;5116264;28;20225;-77
2021/08/19 00:21:10;;;;;;;2.65;1.40;;;18.10;99.80;;;;;;5115723;28;20147;-78
2021/08/19 00:23:38;;;;;;;2.90;1.45;;;18.00;99.90;;;;;;5099684;28;20124;-77
2021/08/19 00:26:06;;;;;;;3.03;1.50;;;18.00;99.90;;;;;;5116001;28;20209;-80
2021/08/19 00:28:34;;;;;;;3.05;1.52;;;18.00;99.90;;;;;;5115613;28;20130;-79
2021/08/19 00:31:02;;;;;;;3.28;1.55;;;18.00;99.90;;;;;;5115633;28;20479;-80
2021/08/19 00:33:30;;;;;;;3.20;1.58;;;18.00;99.90;;;;;;5115835;28;20155;-79
2021/08/19 00:35:57;;;;;;;3.55;1.50;;;17.90;99.90;;;;;;5115992;28;20123;-77
2021/08/19 00:38:24;;;;;;;2.90;1.25;;;17.90;99.90;;;;;;5116352;28;20044;-78
2021/08/19 00:40:51;;;;;;;3.42;1.60;;;17.90;99.90;;;;;;5115955;28;20138;-77
2021/08/19 00:43:19;;;;;;;2.83;1.20;;;17.90;99.90;;;;;;5115590;28;20134;-78
2021/08/19 00:45:47;;;;;;;3.42;1.60;;;17.80;99.90;;;;;;5115534;28;20043;-78
2021/08/19 00:48:15;;;;;;;2.90;1.48;;;17.80;99.90;;;;;;5106079;28;20075;-78
2021/08/19 00:50:43;;;;;;;4.22;1.40;;;17.80;99.90;;;;;;5107699;28;20481;-80
2021/08/19 00:53:10;;;;;;;3.80;1.67;;;17.80;99.90;;;;;;5098791;28;20131;-79
2021/08/19 00:55:37;;;;;;;3.20;1.70;;;17.80;99.90;;;;;;5115450;28;20122;-77
2021/08/19 00:58:05;;;;;;;2.92;1.60;;;17.80;99.90;;;;;;5115441;28;20221;-77
2021/08/19 01:00:33;;;;;;;2.85;1.50;;;17.70;99.90;;;;;;5115288;28;20134;-77
2021/08/19 01:03:03;;;;;;;2.85;1.60;;;17.70;99.90;;;;;;5114852;28;20123;-77
2021/08/19 01:05:34;;;;;;;3.03;1.40;;;17.70;99.90;;;;;;5115091;28;20122;-77
2021/08/19 01:08:01;;;;;;;3.30;1.60;;;17.70;99.90;;;;;;5114238;28;20123;-76
2021/08/19 01:10:30;;;;;;;3.08;1.52;;;17.70;99.90;;;;;;5114885;28;20551;-80
2021/08/19 01:12:57;;;;;;;3.95;1.63;;;17.70;99.90;;;;;;5114871;28;20128;-80
2021/08/19 01:15:24;;;;;;;3.35;1.50;;;17.60;99.90;;;;;;5114771;28;20047;-81
2021/08/19 01:17:56;;;;;;;2.50;1.38;;;17.70;99.90;;;;;;5114570;28;20127;-79
2021/08/19 01:20:29;;;;;;;2.83;1.40;;;17.60;99.90;;;;;;5114834;28;20466;-79
2021/08/19 01:22:58;;;;;;;3.58;1.50;;;17.60;99.90;;;;;;5114869;28;20472;-79
2021/08/19 01:25:26;;;;;;;3.13;1.52;;;17.60;99.90;;;;;;5119202;28;20404;-79
2021/08/19 01:27:57;;;;;;;2.72;1.40;;;17.60;99.90;;;;;;5114579;28;20461;-79
2021/08/19 01:30:26;;;;;;;3.67;1.45;;;17.60;99.90;;;;;;5114304;28;20139;-78
2021/08/19 01:32:53;;;;;;;3.38;1.70;;;17.50;99.90;;;;;;5114842;28;20118;-78
2021/08/19 01:35:21;;;;;;;3.90;1.88;;;17.50;99.90;;;;;;5114151;28;20135;-80
2021/08/19 01:37:49;;;;;;;3.78;1.67;;;17.50;99.90;;;;;;5114218;28;20039;-80
2021/08/19 01:40:16;;;;;;;3.92;1.70;;;17.50;99.90;;;;;;5114533;28;20126;-78
2021/08/19 01:42:45;;;;;;;2.97;1.50;;;17.50;99.90;;;;;;5114172;28;20092;-79
2021/08/19 01:45:16;;;;;;;3.10;1.40;;;17.50;99.90;;;;;;5113997;28;20561;-78
2021/08/19 01:47:44;;;;;;;2.60;1.42;;;17.40;99.90;;;;;;5114166;28;20044;-81
2021/08/19 01:50:12;;;;;;;4.35;1.63;;;17.40;99.90;;;;;;5114352;28;20071;-79
2021/08/19 01:52:42;;;;;;;3.33;1.70;;;17.40;99.90;;;;;;5114102;28;20126;-79
2021/08/19 01:55:09;;;;;;;3.22;1.50;;;17.40;99.90;;;;;;5114149;28;20130;-79
2021/08/19 01:57:36;;;;;;;4.75;1.42;;;17.40;99.90;;;;;;5114057;28;20123;-78
2021/08/19 02:00:06;;;;;;;3.20;1.50;;;17.30;99.90;;;;;;5114332;28;20126;-77
2021/08/19 02:02:34;;;;;;;2.90;1.55;;;17.30;99.90;;;;;;5113712;28;20542;-79
2021/08/19 02:05:01;;;;;;;4.35;1.58;;;17.30;99.90;;;;;;5114263;28;20054;-80
2021/08/19 02:07:28;;;;;;;3.80;1.40;;;17.30;99.90;;;;;;5118305;28;20138;-78
2021/08/19 02:09:55;;;;;;;2.70;1.30;;;17.30;99.90;;;;;;5119951;28;20134;-77
2021/08/19 02:12:22;;;;;;;2.75;1.42;;;17.30;99.90;;;;;;5114136;28;20071;-76
2021/08/19 02:14:49;;;;;;;3.15;1.60;;;17.40;99.90;;;;;;5113687;28;20044;-78
2021/08/19 02:17:16;;;;;;;4.38;1.80;;;17.30;99.90;;;;;;5113942;28;20101;-78
2021/08/19 02:19:45;;;;;;;4.20;1.60;;;17.30;99.90;;;;;;5113470;28;20123;-75
2021/08/19 02:22:12;;;;;;;3.42;1.50;;;17.30;99.90;;;;;;5113552;28;20122;-76
2021/08/19 02:24:39;;;;;;;2.75;1.30;;;17.30;99.90;;;;;;5113529;28;20127;-80
2021/08/19 02:27:06;;;;;;;2.70;1.30;;;17.30;99.90;;;;;;5113979;28;20126;-78
2021/08/19 02:29:33;;;;;;;4.38;1.50;;;17.30;99.90;;;;;;5113642;28;20082;-78
2021/08/19 02:32:01;;;;;;;2.58;1.30;;;17.30;99.90;;;;;;5113763;28;20047;-76
2021/08/19 02:34:28;;;;;;;2.97;1.58;;;17.30;99.90;;;;;;5113153;28;20140;-79
2021/08/19 02:36:56;;;;;;;2.83;1.42;;;17.30;99.90;;;;;;5113285;28;20040;-76
2021/08/19 02:39:24;;;;;;;2.67;1.33;;;17.30;99.90;;;;;;5113457;28;20127;-77
2021/08/19 02:41:51;;;;;;;3.20;1.45;;;17.30;99.90;;;;;;5113485;28;20485;-78
2021/08/19 02:44:18;;;;;;;2.63;1.50;;;17.20;99.90;;;;;;5113795;28;20040;-75
2021/08/19 02:46:45;;;;;;;2.92;1.30;;;17.20;99.90;;;;;;5113435;28;20126;-77
2021/08/19 02:49:12;;;;;;;3.63;1.40;;;17.20;99.90;;;;;;5112069;28;20532;-79
2021/08/19 02:51:39;;;;;;;3.97;1.40;;;17.20;99.90;;;;;;5121498;28;20043;-79
2021/08/19 02:54:07;;;;;;;2.80;1.30;;;17.20;99.90;;;;;;5119069;28;20122;-79
2021/08/19 02:56:35;;;;;;;2.40;1.23;;;17.20;99.90;;;;;;5113456;28;20122;-77
2021/08/19 02:59:02;;;;;;;3.33;1.33;;;17.20;99.90;;;;;;5113179;28;20062;-81
2021/08/19 03:01:30;;;;;;;3.13;1.50;;;17.20;99.90;;;;;;5113172;28;20473;-78
2021/08/19 03:03:57;;;;;;;2.88;1.30;;;17.20;99.90;;;;;;5110959;28;20107;-78
2021/08/19 03:06:24;;;;;;;3.17;1.20;;;17.20;99.90;;;;;;5110980;28;20119;-78
2021/08/19 03:08:51;;;;;;;3.17;1.10;;;17.20;99.90;;;;;;5110135;28;20476;-79
2021/08/19 03:11:19;;;;;;;2.80;1.13;;;17.20;99.90;;;;;;5108735;28;20135;-82
2021/08/19 03:13:46;;;;;;;2.97;1.30;;;17.20;99.90;;;;;;5109833;28;20130;-78
2021/08/19 03:16:14;;;;;;;2.30;1.10;;;17.20;99.90;;;;;;5109614;28;20122;-78
2021/08/19 03:18:42;;;;;;;2.95;1.10;;;17.20;99.90;;;;;;5109534;28;20118;-77
2021/08/19 03:21:09;;;;;;;2.35;1.10;;;17.20;99.90;;;;;;5110273;28;20048;-79
2021/08/19 03:23:37;;;;;;;3.28;1.10;;;17.20;99.90;;;;;;5109629;28;20122;-78
2021/08/19 03:26:05;;;;;;;1.90;0.90;;;17.20;99.90;;;;;;5114051;28;20473;-78
2021/08/19 03:28:33;;;;;;;2.38;1.10;;;17.20;99.90;;;;;;5116216;28;20067;-76
2021/08/19 03:31:01;;;;;;;3.83;1.20;;;17.20;99.90;;;;;;5114595;28;20122;-78
2021/08/19 03:33:29;;;;;;;3.15;1.10;;;17.20;99.90;;;;;;5115738;28;20051;-81
2021/08/19 03:35:56;;;;;;;3.65;1.27;;;17.20;99.90;;;;;;5114554;28;20040;-76
2021/08/19 03:38:23;;;;;;;2.72;1.10;;;17.20;99.90;;;;;;5109575;28;20573;-78
2021/08/19 03:40:50;;;;;;;2.45;1.10;;;17.20;99.90;;;;;;5110790;28;20147;-79
2021/08/19 03:43:17;;;;;;;2.60;0.93;;;17.20;99.90;;;;;;5115099;28;20075;-78
2021/08/19 03:45:47;;;;;;;2.60;1.10;;;17.20;99.90;;;;;;5113457;28;20039;-79
2021/08/19 03:48:14;;;;;;;1.95;0.98;;;17.20;99.90;;;;;;5110965;28;20071;-79
2021/08/19 03:50:42;;;;;;;2.05;0.90;;;17.20;99.90;;;;;;5109693;28;20537;-77
2021/08/19 03:53:09;;;;;;;2.13;0.80;;;17.20;99.90;;;;;;5109646;28;20048;-80
2021/08/19 03:55:36;;;;;;;2.30;0.90;;;17.20;99.90;;;;;;5109389;28;20039;-77
2021/08/19 03:58:03;;;;;;;3.60;1.00;;;17.20;99.90;;;;;;5109846;28;20547;-80
2021/08/19 04:00:30;;;;;;;2.28;1.00;;;17.20;99.90;;;;;;5112478;28;20047;-79
2021/08/19 04:02:59;;;;;;;1.85;0.80;;;17.20;99.90;;;;;;5115180;28;20127;-80
2021/08/19 04:05:26;;;;;;;1.65;0.80;;;17.20;99.90;;;;;;5113876;28;20122;-79
2021/08/19 04:07:53;;;;;;;3.53;1.05;;;17.20;99.90;;;;;;5101812;28;20118;-77
2021/08/19 04:10:20;;;;;;;1.73;0.75;;;17.20;99.90;;;;;;5109128;28;20139;-79
2021/08/19 04:12:48;;;;;;;2.30;1.00;;;17.20;99.90;;;;;;5116251;28;20044;-79
2021/08/19 04:15:15;;;;;;;1.58;0.73;;;17.20;99.90;;;;;;5115745;28;20090;-75
2021/08/19 04:17:42;;;;;;;2.00;0.90;;;17.20;99.90;;;;;;5124247;28;20122;-79
2021/08/19 04:20:13;;;;;;;2.03;0.90;;;17.20;99.90;;;;;;5118862;28;20134;-79
2021/08/19 04:22:40;;;;;;;2.63;1.08;;;17.20;99.90;;;;;;5116006;28;20471;-78
2021/08/19 04:25:08;;;;;;;2.08;0.80;;;17.10;99.90;;;;;;5115813;28;20154;-80
2021/08/19 04:27:35;;;;;;;2.10;0.90;;;17.20;99.90;;;;;;5115698;27;20039;-78
2021/08/19 04:30:02;;;;;;;2.63;0.95;;;17.10;99.90;;;;;;5115661;28;20135;-78
2021/08/19 04:32:29;;;;;;;2.22;0.98;;;17.10;99.90;;;;;;5115779;28;20047;-78
2021/08/19 04:34:56;;;;;;;2.30;0.90;;;17.10;99.90;;;;;;5116109;28;20047;-79
2021/08/19 04:37:25;;;;;;;2.00;0.70;;;17.20;99.90;;;;;;5116020;28;20044;-79
2021/08/19 04:39:52;;;;;;;3.47;0.80;;;17.10;99.90;;;;;;5115828;28;20105;-78
2021/08/19 04:42:19;;;;;;;2.17;0.93;;;17.10;99.90;;;;;;5115756;28;20515;-78
2021/08/19 04:44:47;;;;;;;2.00;0.88;;;17.10;99.90;;;;;;5115751;28;20468;-78
2021/08/19 04:47:14;;;;;;;1.98;0.77;;;17.10;99.90;;;;;;5115879;28;20130;-78
2021/08/19 04:49:41;;;;;;;2.58;0.90;;;17.10;99.90;;;;;;5115866;28;20126;-78
2021/08/19 04:52:08;;;;;;;2.33;1.00;;;17.10;99.90;;;;;;5115651;28;20052;-78
2021/08/19 04:54:37;;;;;;;1.80;0.90;;;17.10;99.90;;;;;;5115829;28;20039;-79
2021/08/19 04:57:05;;;;;;;3.33;0.90;;;17.10;99.90;;;;;;5115840;28;20436;-78
2021/08/19 04:59:32;;;;;;;2.25;0.90;;;17.10;99.90;;;;;;5120814;28;20099;-79
2021/08/19 05:02:01;;;;;;;2.00;0.80;;;17.10;99.90;;;;;;5120544;28;20130;-80
2021/08/19 05:04:28;;;;;;;1.60;0.80;;;17.10;99.90;;;;;;5115457;28;20124;-80
2021/08/19 05:06:55;;;;;;;1.98;0.80;;;17.10;99.90;;;;;;5115702;28;20135;-78
2021/08/19 05:09:22;;;;;;;1.85;0.80;;;17.10;99.90;;;;;;5115754;28;20479;-79
2021/08/19 05:11:50;;;;;;;3.75;1.20;;;17.10;99.90;;;;;;5114581;28;20058;-79
2021/08/19 05:14:17;;;;;;;1.98;0.80;;;17.10;99.90;;;;;;5119494;28;20107;-79
2021/08/19 05:16:44;;;;;;;3.28;0.90;;;17.00;99.90;;;;;;5119645;28;20463;-77
2021/08/19 05:19:11;;;;;;;2.20;1.00;;;17.00;99.90;;;;;;5122237;28;20106;-79
2021/08/19 05:21:40;;;;;;;2.20;0.80;;;17.00;99.90;;;;;;5120819;28;20078;-79
2021/08/19 05:24:08;;;;;;;2.10;0.95;;;17.10;99.90;;;;;;5119809;28;20043;-77
2021/08/19 05:26:35;;;;;;;1.90;0.80;;;17.10;99.90;;;;;;5121683;28;20127;-77
2021/08/19 05:29:03;;;;;;;2.33;0.88;;;17.10;99.90;;;;;;5121093;28;20115;-78
2021/08/19 05:31:30;;;;;;;2.30;0.95;;;17.00;99.90;;;;;;5116559;28;20131;-79
2021/08/19 05:33:58;;;;;;;2.17;0.73;;;17.10;99.90;;;;;;5118931;28;20086;-75
2021/08/19 05:36:25;;;;;;;2.28;0.90;;;17.10;99.90;;;;;;5115777;28;20054;-75
2021/08/19 05:38:52;;;;;;;2.45;1.00;;;17.10;99.90;;;;;;5115426;28;20122;-80
2021/08/19 05:41:19;;;;;;;1.85;0.80;;;17.10;99.90;;;;;;5115348;28;20136;-76
2021/08/19 05:43:46;;;;;;;2.03;1.00;;;17.10;99.90;;;;;;5118378;27;20078;-80
2021/08/19 05:46:18;;;;;;;1.75;0.75;;;17.10;99.90;;;;;;5115038;28;20132;-80
2021/08/19 05:48:45;;;;;;;1.83;0.75;;;17.10;99.90;;;;;;5121223;28;20134;-78
2021/08/19 05:51:12;;;;;;;2.13;0.90;;;17.10;99.90;;;;;;5114599;28;20513;-77
2021/08/19 05:53:41;;;;;;;2.30;0.98;;;17.20;99.90;;;;;;5114320;28;20549;-78
2021/08/19 05:56:08;;;;;;;1.80;0.82;;;17.20;99.90;;;;;;5114358;28;20048;-79
2021/08/19 05:58:35;;;;;;;1.75;0.90;;;17.20;99.90;;;;;;5114501;28;20086;-80
2021/08/19 06:01:02;;;;;;;1.70;0.80;;;17.20;99.90;;;;;;5114287;28;20126;-79
2021/08/19 06:03:31;;;;;;;2.80;1.00;;;17.20;99.90;;;;;;5114210;28;20458;-78
2021/08/19 06:05:58;;;;;;;2.92;1.00;;;17.20;99.90;;;;;;5114288;28;20146;-78
2021/08/19 06:08:25;;;;;;;2.33;1.10;;;17.20;99.90;;;;;;5114106;28;20134;-77
2021/08/19 06:10:52;;;;;;;2.22;0.90;;;17.20;99.90;;;;;;5113734;28;20043;-80
2021/08/19 06:13:19;;;;;;;3.38;1.00;;;17.20;99.90;;;;;;5113643;28;20127;-78
2021/08/19 06:15:46;;;;;;;1.90;0.82;;;17.20;99.90;;;;;;5113901;28;20123;-79
2021/08/19 06:18:13;;;;;;;2.95;1.13;;;17.20;99.90;;;;;;5114103;28;20083;-80
2021/08/19 06:20:42;;;;;;;2.42;0.90;;;17.30;99.90;;;;;;5113690;28;20130;-79
2021/08/19 06:23:11;;;;;;;2.33;1.00;;;17.30;99.90;;;;;;5113866;28;20532;-77
2021/08/19 06:25:39;;;;;;;3.35;1.13;;;17.30;99.90;;;;;;5114457;28;20039;-80
2021/08/19 06:28:06;;;;;;;1.92;0.93;;;17.30;99.90;;;;;;5115660;28;20082;-80
2021/08/19 06:30:33;;;;;;;2.80;1.00;;;17.30;99.90;;;;;;5113994;28;20134;-79
2021/08/19 06:33:00;;;;;;;2.45;1.10;;;17.30;99.90;;;;;;5113815;28;20054;-80
2021/08/19 06:35:28;;;;;;;2.53;1.20;;;17.30;99.90;;;;;;5113630;28;20515;-77
2021/08/19 06:37:57;;;;;;;2.45;1.10;;;17.30;99.90;;;;;;5113798;28;20576;-78
2021/08/19 06:40:25;;;;;;;2.85;1.00;;;17.30;99.90;;;;;;5113717;28;20134;-78
2021/08/19 06:42:52;;;;;;;2.22;1.00;;;17.40;99.90;;;;;;5113507;28;20579;-77
2021/08/19 06:45:19;;;;;;;2.00;0.88;;;17.40;99.90;;;;;;5113728;28;20217;-77
2021/08/19 06:47:46;;;;;;;3.00;0.90;;;17.40;99.90;;;;;;5113711;28;20130;-77
2021/08/19 06:50:13;;;;;;;2.13;0.98;;;17.50;99.90;;;;;;5113607;28;20126;-78
2021/08/19 06:52:44;;;;;;;2.30;1.00;;;17.50;99.90;;;;;;5113438;28;20086;-80
2021/08/19 06:55:14;;;;;;;2.20;1.10;;;17.60;99.90;;;;;;5113357;28;20524;-78
2021/08/19 06:57:41;;;;;;;2.53;1.10;;;17.50;99.90;;;;;;5113591;28;20126;-79
2021/08/19 07:00:10;;;;;;;2.47;1.00;;;17.50;99.90;;;;;;5113420;28;20578;-78
2021/08/19 07:02:37;;;;;;;2.53;1.15;;;17.60;99.90;;;;;;5113389;28;20168;-75
2021/08/19 07:05:06;;;;;;;3.15;1.42;;;17.60;99.90;;;;;;5113263;28;20056;-78
2021/08/19 07:07:33;;;;;;;4.05;1.10;;;17.60;99.90;;;;;;5113266;28;20126;-78
2021/08/19 07:10:01;;;;;;;3.00;1.10;;;17.60;99.90;;;;;;5113150;28;20560;-79
2021/08/19 07:12:30;;;;;;;1.98;1.00;;;17.60;99.90;;;;;;5113312;28;20055;-79
2021/08/19 07:14:57;;;;;;;2.75;1.20;;;17.60;99.90;;;;;;5113391;28;20130;-77
2021/08/19 07:17:24;;;;;;;2.72;1.13;;;17.60;99.90;;;;;;5113376;28;20438;-78
2021/08/19 07:19:51;;;;;;;3.10;1.20;;;17.60;99.90;;;;;;5112931;28;20094;-78
2021/08/19 07:22:18;;;;;;;2.22;1.10;;;17.70;99.90;;;;;;5113146;28;20126;-78
2021/08/19 07:24:45;;;;;;;2.63;1.38;;;17.70;99.90;;;;;;5113019;28;20500;-77
2021/08/19 07:27:12;;;;;;;2.50;1.10;;;17.70;99.90;;;;;;5113257;28;20126;-78
2021/08/19 07:29:41;;;;;;;4.38;1.50;;;17.70;99.90;;;;;;5113220;28;20134;-76
2021/08/19 07:32:09;;;;;;;2.65;1.10;;;17.70;99.90;;;;;;5113126;28;20044;-78
2021/08/19 07:34:36;;;;;;;2.70;1.20;;;17.70;99.90;;;;;;5114535;28;20126;-77
2021/08/19 07:37:04;;;;;;;3.40;1.50;;;17.80;99.90;;;;;;5117071;28;20134;-77
2021/08/19 07:39:31;;;;;;;3.28;1.25;;;17.80;99.90;;;;;;5117171;28;20576;-79
2021/08/19 07:41:58;;;;;;;3.45;1.70;;;17.80;99.90;;;;;;5117321;28;20079;-77
2021/08/19 07:44:25;;;;;;;2.72;1.30;;;17.80;99.90;;;;;;5116967;28;20122;-77
2021/08/19 07:46:53;;;;;;;2.60;1.25;;;17.80;99.90;;;;;;5116776;28;20138;-78
2021/08/19 07:49:21;;;;;;;3.58;1.17;;;17.80;99.90;;;;;;5116679;28;20567;-79
2021/08/19 07:51:48;;;;;;;2.45;1.15;;;17.80;99.90;;;;;;5117104;28;20086;-78
2021/08/19 07:54:16;;;;;;;2.55;1.10;;;17.90;99.90;;;;;;5116849;28;20138;-78
2021/08/19 07:56:43;;;;;;;2.60;1.20;;;17.90;99.90;;;;;;5116734;28;20044;-78
2021/08/19 07:59:11;;;;;;;3.22;1.38;;;18.00;99.90;;;;;;5116678;28;20600;-78
2021/08/19 08:01:38;;;;;;;3.10;1.20;;;18.10;99.90;;;;;;5116689;28;20049;-80
2021/08/19 08:04:08;;;;;;;2.17;1.10;;;18.10;99.90;;;;;;5116354;28;20473;-78
2021/08/19 08:06:35;;;;;;;3.10;1.10;;;18.10;99.90;;;;;;5116745;28;20094;-78
2021/08/19 08:09:04;;;;;;;2.60;1.05;;;18.20;99.90;;;;;;5116377;28;20127;-78
2021/08/19 08:11:31;;;;;;;2.85;1.20;;;18.30;99.90;;;;;;5116870;27;20075;-77
2021/08/19 08:14:01;;;;;;;2.65;1.30;;;18.30;99.90;;;;;;5116007;28;20083;-78
2021/08/19 08:16:28;;;;;;;2.92;1.20;;;18.40;99.90;;;;;;5116352;28;20051;-78
2021/08/19 08:18:55;;;;;;;3.20;1.35;;;18.40;99.70;;;;;;5116301;28;20071;-78
2021/08/19 08:21:24;;;;;;;2.50;1.20;;;18.50;99.90;;;;;;5116572;28;20051;-78
2021/08/19 08:23:53;;;;;;;4.70;1.20;;;18.50;99.80;;;;;;5116506;28;20052;-76
2021/08/19 08:26:21;;;;;;;2.58;1.20;;;18.60;99.60;;;;;;5118912;28;20044;-79
2021/08/19 08:28:50;;;;;;;3.13;1.15;;;18.70;99.40;;;;;;5123679;28;20048;-79
2021/08/19 08:31:18;;;;;;;2.30;0.90;;;18.70;99.40;;;;;;5123731;28;20043;-78
2021/08/19 08:33:46;;;;;;;2.00;0.90;;;18.80;99.20;;;;;;5117757;28;20511;-78
2021/08/19 08:36:13;;;;;;;3.70;1.10;;;18.90;99.30;;;;;;5116362;28;20040;-77
2021/08/19 08:38:42;;;;;;;3.75;1.30;;;19.00;99.10;;;;;;5117027;28;20132;-78
2021/08/19 08:41:10;;;;;;;2.45;1.10;;;19.10;98.80;;;;;;5116323;28;20048;-79
2021/08/19 08:43:38;;;;;;;4.43;1.20;;;19.10;98.50;;;;;;5115730;28;20128;-78
2021/08/19 08:46:10;;;;;;;3.22;1.10;;;19.20;98.40;;;;;;5114595;28;20101;-76
2021/08/19 08:48:38;;;;;;;2.83;1.20;;;19.30;98.40;;;;;;5116404;28;20485;-75
2021/08/19 08:51:05;;;;;;;2.90;1.30;;;19.30;98.20;;;;;;5115656;28;20563;-77
2021/08/19 08:53:32;;;;;;;2.45;1.10;;;19.30;97.90;;;;;;5115533;28;20093;-75
2021/08/19 08:56:00;;;;;;;2.50;1.20;;;19.30;97.90;;;;;;5115593;28;20126;-78
2021/08/19 08:58:27;;;;;;;3.90;1.23;;;19.30;98.10;;;;;;5115378;28;20445;-78
2021/08/19 09:00:54;;;;;;;2.90;1.20;;;19.40;98.00;;;;;;5115596;28;20157;-78
2021/08/19 09:03:22;;;;;;;1.98;1.00;;;19.50;97.50;;;;;;5114954;27;20105;-80
2021/08/19 09:05:51;;;;;;;3.20;1.10;;;19.50;97.30;;;;;;5132177;27;20047;-80
2021/08/19 09:08:20;;;;;;;2.25;0.90;;;19.50;97.20;;;;;;5136074;27;20130;-78
2021/08/19 09:10:50;;;;;;;3.42;1.10;;;19.60;97.40;;;;;;5135673;27;20074;-79
2021/08/19 09:13:23;;;;;;;2.50;1.20;;;19.70;97.10;;;;;;5123616;27;20039;-75
2021/08/19 09:15:51;;;;;;;2.03;0.90;;;19.80;96.60;;;;;;5136040;27;20047;-76
2021/08/19 09:18:31;;;;;;;3.25;1.15;;;19.80;96.40;;;;;;5138826;27;20500;-79
2021/08/19 09:20:58;;;;;;;2.47;1.05;;;19.80;96.40;;;;;;5137797;27;20103;-80
2021/08/19 09:23:26;;;;;;;3.33;1.20;;;19.90;96.50;;;;;;5136332;27;20130;-79
2021/08/19 09:25:53;;;;;;;2.25;0.90;;;20.00;96.50;;;;;;5136924;27;20050;-76
2021/08/19 09:28:25;;;;;;;4.35;1.10;;;20.10;96.50;;;;;;5137275;27;20559;-78
2021/08/19 09:30:54;;;;;;;2.50;1.13;;;20.20;95.70;;;;;;5130373;27;20107;-78
2021/08/19 09:33:23;;;;;;;2.17;1.08;;;20.30;95.50;;;;;;5115861;27;20138;-78
2021/08/19 09:35:52;;;;;;;3.05;1.23;;;20.40;95.30;;;;;;5114739;28;20130;-75
2021/08/19 09:38:21;;;;;;;2.53;1.23;;;20.40;95.00;;;;;;5114772;28;20111;-78
2021/08/19 09:41:08;;;;;;;2.00;0.90;;;20.40;94.30;;;;;;5112651;27;20135;-78
2021/08/19 09:43:44;;;;;;;3.10;1.10;;;20.40;94.30;;;;;;5111605;28;20415;-79
2021/08/19 09:46:14;;;;;;;2.55;1.15;;;20.40;94.50;;;;;;5112062;28;20126;-78
2021/08/19 09:48:42;;;;;;;2.40;1.10;;;20.40;94.40;;;;;;5113675;27;20130;-78
2021/08/19 09:51:22;;;;;;;2.03;1.00;;;20.40;93.90;;;;;;5111879;28;20131;-80
2021/08/19 09:53:51;;;;;;;3.17;1.08;;;20.30;94.10;;;;;;5111636;28;20088;-78
2021/08/19 09:56:29;;;;;;;1.98;0.90;;;20.30;94.40;;;;;;5111275;28;20058;-78
2021/08/19 09:59:18;;;;;;;2.40;1.02;;;20.20;94.20;;;;;;5116456;27;20124;-80
2021/08/19 10:01:45;;;;;;;3.47;1.05;;;20.10;94.40;;;;;;5131140;27;20075;-78
2021/08/19 10:04:13;;;;;;;2.80;1.10;;;20.10;94.20;;;;;;5129030;27;20126;-79
2021/08/19 10:06:41;;;;;;;2.25;1.00;;;20.10;94.40;;;;;;5130764;27;20050;-80
2021/08/19 10:09:08;;;;;;;3.95;1.20;;;20.10;94.80;;;;;;5127678;27;20158;-79
2021/08/19 10:11:36;;;;;;;2.30;1.10;;;20.00;94.90;;;;;;5110940;28;20097;-78
2021/08/19 10:14:04;;;;;;;2.88;1.10;;;20.10;95.10;;;;;;5110988;28;20146;-78
2021/08/19 10:16:32;;;;;;;3.40;1.10;;;20.10;95.10;;;;;;5110841;28;20090;-78
2021/08/19 10:19:01;;;;;;;2.47;1.10;;;20.10;95.30;;;;;;5110382;28;20044;-78
2021/08/19 10:21:29;;;;;;;2.30;0.93;;;20.20;95.20;;;;;;5109986;28;20190;-78
2021/08/19 10:23:58;;;;;;;1.50;0.70;;;20.30;95.20;;;;;;5114180;27;20392;-78
2021/08/19 10:26:26;;;;;;;2.50;1.10;;;20.50;95.50;;;;;;5110395;28;20127;-79
2021/08/19 10:28:56;;;;;;;2.65;1.00;;;20.60;95.00;;;;;;5110192;28;20047;-79
2021/08/19 10:31:46;;;;;;;2.53;0.88;;;20.80;94.90;;;;;;5110453;28;20130;-80
2021/08/19 10:34:17;;;;;;;1.80;0.90;;;20.90;94.60;;;;;;5125066;27;20142;-78
2021/08/19 10:37:02;;;;;;;1.88;0.82;;;21.00;94.60;;;;;;5131849;27;20138;-78
2021/08/19 10:39:37;;;;;;;1.75;0.80;;;21.10;94.50;;;;;;5113418;27;20492;-79
2021/08/19 10:42:04;;;;;;;2.10;0.80;;;21.20;94.40;;;;;;5110926;28;20138;-77
2021/08/19 10:44:36;;;;;;;1.85;0.90;;;21.20;94.40;;;;;;5110774;28;20134;-78
2021/08/19 10:47:06;;;;;;;2.58;1.15;;;21.30;94.50;;;;;;5111514;27;20126;-80
2021/08/19 10:49:36;;;;;;;2.53;1.10;;;21.40;94.30;;;;;;5110892;28;20059;-77
2021/08/19 10:52:29;;;;;;;2.50;1.10;;;21.40;94.00;;;;;;5110828;28;20054;-80
2021/08/19 10:55:16;;;;;;;3.95;1.35;;;21.50;93.80;;;;;;5110836;28;20051;-79
2021/08/19 10:57:55;;;;;;;3.60;1.00;;;21.50;93.60;;;;;;5112029;28;20067;-77
2021/08/19 11:00:41;;;;;;;1.90;0.90;;;21.50;93.10;;;;;;5110633;28;20040;-78
2021/08/19 11:03:46;;;;;;;3.20;1.13;;;21.50;92.80;;;;;;5111092;28;20572;-80
2021/08/19 11:06:17;;;;;;;2.25;1.10;;;21.50;92.50;;;;;;5110799;28;20075;-80
2021/08/19 11:08:55;;;;;;;1.95;0.80;;;21.60;92.60;;;;;;5110865;28;20048;-79
2021/08/19 11:11:33;;;;;;;3.38;1.15;;;21.60;92.80;;;;;;5125901;27;20130;-79
2021/08/19 11:14:03;;;;;;;2.67;1.00;;;21.60;92.90;;;;;;5128547;27;20168;-79
2021/08/19 11:16:30;;;;;;;1.88;0.80;;;21.70;93.00;;;;;;5134616;27;20942;-78
2021/08/19 11:19:14;;;;;;;1.92;0.95;;;21.70;92.80;;;;;;5134832;27;20051;-79
2021/08/19 11:21:41;;;;;;;2.65;1.10;;;21.70;92.60;;;;;;5134936;27;20047;-79
2021/08/19 11:24:09;;;;;;;2.75;0.80;;;21.70;92.70;;;;;;5134789;27;20081;-80
2021/08/19 11:26:37;;;;;;;2.03;1.00;;;21.70;92.90;;;;;;5132235;27;20058;-78
2021/08/19 11:29:04;;;;;;;2.33;0.80;;;21.80;92.90;;;;;;5114241;28;20093;-77
2021/08/19 11:31:31;;;;;;;1.95;0.80;;;21.80;92.50;;;;;;5114343;28;20118;-78
2021/08/19 11:34:02;;;;;;;2.15;0.88;;;22.00;92.10;;;;;;5114137;28;20134;-78
2021/08/19 11:36:31;;;;;;;2.45;0.90;;;22.10;91.80;;;;;;5114234;28;20054;-80
2021/08/19 11:39:01;;;;;;;1.95;1.00;;;22.10;91.80;;;;;;5114739;28;20040;-79
2021/08/19 11:41:29;;;;;;;2.17;0.98;;;22.10;91.50;;;;;;5116045;28;20043;-79
2021/08/19 11:44:00;;;;;;;2.85;0.90;;;22.10;90.40;;;;;;5113526;28;20411;-77
2021/08/19 11:46:28;;;;;;;2.20;0.90;;;22.10;90.50;;;;;;5113628;28;20054;-80
2021/08/19 11:48:57;;;;;;;2.30;0.90;;;22.00;90.20;;;;;;5113607;28;20047;-79
2021/08/19 11:51:30;;;;;;;2.70;1.08;;;22.00;90.40;;;;;;5113756;28;20049;-79
2021/08/19 11:54:00;;;;;;;2.40;0.88;;;21.90;90.30;;;;;;5113305;28;20511;-78
2021/08/19 11:56:30;;;;;;;2.70;1.00;;;21.90;90.40;;;;;;5113746;28;20131;-79
2021/08/19 11:59:06;;;;;;;1.80;0.90;;;21.90;90.10;;;;;;5114066;28;20043;-81
2021/08/19 12:01:34;;;;;;;2.25;1.00;;;21.90;90.10;;;;;;5113446;28;20135;-78
2021/08/19 12:04:01;;;;;;;2.20;0.93;;;22.00;90.00;;;;;;5123744;27;20131;-80
2021/08/19 12:06:32;;;;;;;2.80;1.25;;;22.00;90.00;;;;;;5133372;27;20047;-80
2021/08/19 12:09:04;;;;;;;2.22;0.95;;;22.00;90.10;;;;;;5126546;27;20036;-81
2021/08/19 12:11:34;;;;;;;2.03;0.95;;;22.00;90.10;;;;;;5123907;27;20051;-77
2021/08/19 12:14:01;;;;;;;2.92;1.00;;;22.00;90.20;;;;;;5133694;27;20043;-80
2021/08/19 12:16:30;;;;;;;2.72;1.00;;;22.10;90.00;;;;;;5133302;27;20054;-79
2021/08/19 12:19:12;;;;;;;3.03;1.20;;;22.10;89.30;;;;;;5133158;27;20094;-78
2021/08/19 12:21:42;;;;;;;2.50;1.10;;;22.10;88.50;;;;;;5134105;27;20450;-79
2021/08/19 12:24:17;;;;;;;1.92;0.90;;;22.10;87.70;;;;;;5133658;27;20474;-79
2021/08/19 12:27:00;;;;;;;2.72;0.90;;;22.10;85.10;;;;;;5131983;27;20051;-77
2021/08/19 12:29:28;;;;;;;2.63;1.00;;;22.10;85.50;;;;;;5133656;27;20403;-79
2021/08/19 12:31:56;;;;;;;1.88;0.80;;;22.20;85.70;;;;;;5133344;27;20130;-79
2021/08/19 12:34:23;;;;;;;2.13;0.90;;;22.20;86.00;;;;;;5133249;27;20047;-80
2021/08/19 12:36:52;;;;;;;2.55;0.88;;;22.20;82.80;;;;;;5116565;27;20069;-80
2021/08/19 12:39:24;;;;;;;2.05;0.90;;;22.30;82.20;;;;;;5131819;27;20369;-78
2021/08/19 12:42:06;;;;;;;1.75;0.75;;;22.30;82.50;;;;;;5125974;27;20462;-80
2021/08/19 12:44:33;;;;;;;2.17;0.70;;;22.40;83.10;;;;;;5112869;28;20058;-79
2021/08/19 12:47:00;;;;;;;1.98;1.00;;;22.50;83.10;;;;;;5113170;28;20447;-80
2021/08/19 12:49:31;;;;;;;2.08;0.90;;;22.60;81.40;;;;;;5112638;28;20456;-78
2021/08/19 12:52:23;;;;;;;2.92;0.90;;;22.60;81.00;;;;;;5113545;27;20139;-79
2021/08/19 12:55:13;;;;;;;1.83;0.80;;;22.70;80.30;;;;;;5112500;28;20493;-78
2021/08/19 12:57:43;;;;;;;2.00;0.80;;;22.70;78.80;;;;;;5107639;28;20051;-78